Adell, Wisconsin
Current Conditions -  °F | °C
As of 1:53 AM on Friday 28 Nov 2014 (Local Time) from KSBM Reporting Station
Few Clouds Few Clouds  
Wind Chill: -14°   Ceiling: Unl
Heat Index: -14°   Visibility: 10mi
Dew Point: -16°   Wind: 3mph
Humidity: 84%   Direction: 260°W
Pressure: 30.34"   Gusts: NA
Location:  43.62°N, 87.95°W
Report Text: KSBM 280753Z AUTO 26003KT 10SM FEW120 M14/M16 A3034 RMK AO2 SLP290 T11391161
Loading
Personal Weather Stations






























Interactive Weather Map New forecast layout! Learn more

10-Day Weather Forecast

Advertisements
Track Severe Weather on mobile